Tiempo atmosférico en la estación meteorológica de Olite/Erriberri, Navarra (390 m.)



Fecha
DESCASC
Temp. máxima en grados centígrados (hora)
DESCASC
Temp. mínima en grados centígrados (hora)
DESCASC
Temp. media en grados centígrados
DESCASC
Racha de viento máxima en m/sg (hora)
DESCASC
Velocidad máxima media en intervalos de 10 minutos(hora)
DESCASC
Precipitaciones diarias en mm
DESCASC
Precipitaciones de 00:00 a 06:00 en mm
DESCASC
Precipitaciones de 06:00 a 12:00 en mm
DESCASC
Precipitaciones de 12:00 a 18:00 en mm
DESCASC
Precipitaciones de 18:00 a 24:00 en mm
DESCASC
05-04-2020 16.9 (16:50) 8.2 (06:50) 12.5 13.61 (15:30) 8.89 (15:00) 0 0 0 0 0
04-04-2020 17.7 (17:50) 0.9 (05:40) 9.3 13.89 (16:10) 7.5 (16:50) 0 0 0 0 0
03-04-2020 15.1 (17:40) 4.1 (06:40) 9.6 12.78 (00:10) 7.5 (09:20) 0 0 0 0 0
02-04-2020 15.7 (15:10) 6.8 (00:00) 11.3 13.61 (22:40) 7.5 (22:40) 1.4 1.4 0 0 0
01-04-2020 10.6 (16:20) 5 (00:00) 7.8 7.78 (16:30) 4.72 (16:30) 11 0.2 5.2 3.4 2.2
31-03-2020 5.4 (18:40) 0.3 (00:00) 2.9 5 (03:30) 2.5 (00:20) 15.2 3.2 4.4 6.4 1.2
30-03-2020 7.4 (00:00) 1.7 (00:00) 4.6 12.22 (05:00) 6.67 (04:00) 0 0 0 0 0
29-03-2020 13.7 (14:10) 6 (00:00) 9.8 14.44 (17:30) 7.78 (16:10) 0 0 0 0 0
28-03-2020 18.1 (17:10) 0.9 (00:00) 9.5 6.39 (19:10) 3.89 (23:59) 0 0 0 0 0
27-03-2020 14.6 (16:10) 1.3 (00:00) 8 5.83 (17:10) 3.61 (21:50) 0 0 0 0 0
26-03-2020 11 (14:30) 2.9 (00:00) 7 13.89 (11:10) 8.06 (11:00) 0 0 0 0 0
25-03-2020 11.5 (14:50) 5 (00:00) 8.3 7.78 (12:10) 5 (13:00) 0 0 0 0 0
24-03-2020 16 (17:10) 6.3 (00:00) 11.2 5.28 (10:40) 3.61 (10:40) 0 0 0 0 0
23-03-2020 15.5 (16:50) 8.9 (00:00) 12.2 9.72 (17:20) 5 (17:20) 5.6 3 0 2 0.6
22-03-2020 16.4 (15:20) 4.2 (06:40) 10.3 5.28 (17:10) 3.33 (17:10) 0 0 0 0 0
21-03-2020 15.1 (15:50) 5.5 (00:00) 10.3 8.61 (14:20) 5.28 (14:20) 0 0 0 0 0
20-03-2020 14.9 (16:00) 4.4 (00:00) 9.6 10 (14:30) 6.11 (14:50) 0 0 0 0 0
19-03-2020 16.8 (15:10) 6 (00:00) 11.4 7.78 (15:10) 4.72 (14:50) 0 0 0 0 0
18-03-2020 16.7 (15:20) 5 (00:00) 10.9 4.72 (15:00) 2.78 (17:20) 0 0 0 0 0
17-03-2020 13.3 (16:10) 6.9 (00:00) 10.1 6.67 (00:10) 4.72 (01:10) 0 0 0 0 0
16-03-2020 10.1 (22:10) 4.3 (00:00) 7.2 12.22 (18:50) 6.67 (10:40) 30 16.2 10.8 0.8 2.2
15-03-2020 18.2 (14:10) 1.2 (00:00) 9.7 13.33 (13:10) 8.33 (13:10) 14 0 0 0 14
14-03-2020 15.4 (15:10) 3.2 (00:00) 9.3 10.28 (14:10) 5.83 (02:50) 0 0 0 0 0
13-03-2020 12.6 (13:50) 7 (23:50) 9.8 12.5 (04:10) 7.5 (03:30) 0 0 0 0 0
12-03-2020 20.1 (13:20) 7.4 (00:00) 13.8 12.5 (17:40) 7.22 (17:20) 0 0 0 0 0
11-03-2020 22.9 (17:30) 7.7 (00:00) 15.3 5.56 (02:10) 4.17 (02:00) 0 0 0 0 0
10-03-2020 19.7 (16:00) 6.1 (00:00) 12.9 7.5 (15:10) 4.44 (15:10) 0 0 0 0 0
09-03-2020 11.6 (12:50) 7 (00:00) 9.3 16.39 (12:10) 9.44 (13:10) 0 0 0 0 0

Gráficas

Temp. máximas Temp. mínimas Temp. medias Precipitaciones Rachas de viento máximas Velocidades máximas media en intervalos de 10 minutos

Datos horarios

Fecha y hora oficial Temperatura (ºC) Velocidad del viento (km/h) Dirección del viento Racha (km/h) Dirección de racha Precipitación (mm) Presión (hPa) Tendencia (hPa) Humedad (%)
2020-04-07 23:00:00 12.4 6 Sudeste 10 Sudeste 0 -- -- 84
2020-04-07 22:00:00 12.7 3 Sur 14 Sudeste 0 -- -- 80
2020-04-07 21:00:00 13.1 10 Sudeste 21 Sudeste 0 -- -- 78
2020-04-07 20:00:00 13.7 10 Sudeste 27 Sudeste 0 -- -- 78
2020-04-07 19:00:00 14.3 12 Sur 26 Sudeste 0 -- -- 77
2020-04-07 18:00:00 14.3 15 Sudeste 32 Sudeste 0 -- -- 74
2020-04-07 17:00:00 14.1 20 Sudeste 35 Sudeste 0 -- -- 76
2020-04-07 16:00:00 13.6 21 Sudeste 33 Sudeste 0 -- -- 79
2020-04-07 15:00:00 12.9 16 Sudeste 28 Sudeste 0 -- -- 81
2020-04-07 14:00:00 12.1 14 Sudeste 26 Sudeste 0.2 -- -- 84
2020-04-07 13:00:00 11.5 19 Sudeste 28 Sudeste 0.2 -- -- 83
2020-04-07 12:00:00 10.6 11 Sudeste 23 Sudeste 0.4 -- -- 86
2020-04-07 11:00:00 10.2 14 Sudeste 26 Este 1.6 -- -- 85
2020-04-07 10:00:00 10.2 17 Sudeste 30 Sudeste 0.6 -- -- 86
2020-04-07 09:00:00 10.6 14 Sudeste 20 Sudeste 0 -- -- 85
2020-04-07 08:00:00 10.6 9 Sudeste 19 Sudeste 0 -- -- 88
2020-04-07 07:00:00 10.9 7 Sudeste 13 Sudeste 0 -- -- 88
2020-04-07 06:00:00 11.1 7 Sudeste 11 Sudeste 0 -- -- 88
2020-04-07 05:00:00 11.3 6 Sur 10 Sur 0 -- -- 88
2020-04-07 04:00:00 11.3 5 Sur 10 Sur 0 -- -- 89
2020-04-07 03:00:00 11.5 5 Sudeste 15 Sudeste 0 -- -- 86
2020-04-07 02:00:00 11.7 8 Sudeste 14 Sudeste 0 -- -- 88
2020-04-07 01:00:00 11.2 5 Este 8 Sudeste 0 -- -- 89
2020-04-07 00:00:00 11.1 0 Calma 8 Norte 0.4 -- -- 89
2020-04-06 23:00:00 11.1 2 Nordeste 6 Noroeste 0.2 -- -- 91
2020-04-06 22:00:00 11.3 3 Norte 10 Sudeste 0.8 -- -- 88
2020-04-06 21:00:00 12.1 7 Sudeste 15 Sudeste 0.2 -- -- 79
2020-04-06 20:00:00 13.7 9 Sudeste 17 Sudeste 0 -- -- 65
2020-04-06 19:00:00 13.9 13 Sudeste 24 Sudeste 0 -- -- 64
2020-04-06 18:00:00 14.4 12 Sudeste 35 Sudeste 0 -- -- 63
2020-04-06 17:00:00 15.7 17 Sudeste 33 Sudeste 0 -- -- 56
2020-04-06 16:00:00 16.2 21 Sudeste 33 Sudeste 0 -- -- 51
2020-04-06 15:00:00 15.5 17 Sudeste 37 Sudeste 0 -- -- 52
2020-04-06 14:00:00 14 19 Sudeste 33 Sudeste 0 -- -- 58
2020-04-06 13:00:00 12.5 15 Sudeste 27 Sudeste 0 -- -- 62
2020-04-06 12:00:00 11.5 14 Sudeste 26 Sudeste 0 -- -- 65
2020-04-06 11:00:00 10.6 13 Sudeste 23 Sudeste 0 -- -- 69
2020-04-06 10:00:00 9.7 10 Sur 22 Sudeste 0 -- -- 77
2020-04-06 09:00:00 9 11 Sudeste 18 Sudeste 0 -- -- 80
2020-04-06 08:00:00 8.8 7 Sudeste 17 Sudeste 0 -- -- 85
2020-04-06 07:00:00 9.2 10 Sudeste 20 Sur 0.2 -- -- 84
2020-04-06 06:00:00 9.6 10 Sudeste 22 Sudeste 0 -- -- 84
2020-04-06 05:00:00 9.9 14 Sudeste 21 Sudeste 0.4 -- -- 84
2020-04-06 04:00:00 10.6 10 Sudeste 25 Sudeste 0 -- -- 79
2020-04-06 03:00:00 11.4 14 Sudeste 25 Sudeste 0 -- -- 73
2020-04-06 02:00:00 11.8 13 Sudeste 26 Sudeste 0 -- -- 72
2020-04-06 01:00:00 12.5 14 Sudeste 25 Sudeste 0 -- -- 70
2020-04-06 00:00:00 12.5 12 Sudeste 21 Sudeste 0 -- -- 68
2020-04-05 23:00:00 12.5 10 Sudeste 21 Sudeste 0 -- -- 64
2020-04-05 22:00:00 13.1 12 Sudeste 28 Sudeste 0 -- -- 63
2020-04-05 21:00:00 13.8 18 Sudeste 30 Sudeste 0 -- -- 64
2020-04-05 20:00:00 14.9 18 Sudeste 39 Sudeste 0 -- -- 55
2020-04-05 19:00:00 16.1 22 Sudeste 44 Sudeste 0 -- -- 53
2020-04-05 18:00:00 16.7 27 Sudeste 46 Sudeste 0 -- -- 50
2020-04-05 17:00:00 16.9 28 Sudeste 47 Sudeste 0 -- -- 48
2020-04-05 16:00:00 16.5 30 Sudeste 49 Sudeste 0 -- -- 50
2020-04-05 15:00:00 15.8 32 Sudeste 48 Sudeste 0 -- -- 50
2020-04-05 14:00:00 15.2 30 Sudeste 45 Sudeste 0 -- -- 50
2020-04-05 13:00:00 14 28 Sudeste 46 Sudeste 0 -- -- 56
2020-04-05 12:00:00 13 29 Sudeste 48 Sudeste 0 -- -- 55
2020-04-05 11:00:00 12 28 Sudeste 42 Sudeste 0 -- -- 60
2020-04-05 10:00:00 10.4 16 Sudeste 30 Sudeste 0 -- -- 67
2020-04-05 09:00:00 9.3 19 Sudeste 31 Sudeste 0 -- -- 68
2020-04-05 08:00:00 8.6 8 Sudeste 21 Sudeste 0 -- -- 70
2020-04-05 07:00:00 8.2 13 Sudeste 25 Sudeste 0 -- -- 73
2020-04-05 06:00:00 8.4 13 Sudeste 22 Sudeste 0 -- -- 70
2020-04-05 05:00:00 9.1 13 Sudeste 21 Sudeste 0 -- -- 66
2020-04-05 04:00:00 8.9 10 Sudeste 15 Sudeste 0 -- -- 70
2020-04-05 03:00:00 9.8 6 Sur 21 Sudeste 0 -- -- 68
2020-04-05 02:00:00 10.5 8 Sudeste 26 Sudeste 0 -- -- 67
2020-04-05 01:00:00 10.7 15 Sudeste 27 Sudeste 0 -- -- 70
2020-04-05 00:00:00 12 18 Sudeste 40 Sudeste 0 -- -- 65
2020-04-04 23:00:00 12.7 19 Sudeste 32 Sudeste 0 -- -- 61
2020-04-04 22:00:00 13.4 17 Sudeste 28 Sudeste 0 -- -- 57
2020-04-04 21:00:00 14.2 14 Sudeste 30 Sudeste 0 -- -- 53
2020-04-04 20:00:00 15.5 19 Sudeste 40 Sudeste 0 -- -- 47
2020-04-04 19:00:00 16.8 24 Sudeste 45 Sudeste 0 -- -- 43
2020-04-04 18:00:00 17.7 24 Sudeste 40 Sudeste 0 -- -- 44
2020-04-04 17:00:00 17.6 25 Sudeste 50 Sudeste 0 -- -- 44
2020-04-04 16:00:00 17.3 23 Sudeste 40 Sudeste 0 -- -- 48
2020-04-04 15:00:00 16.6 23 Sudeste 41 Sudeste 0 -- -- 51
2020-04-04 14:00:00 15.8 23 Sudeste 37 Sudeste 0 -- -- 49
2020-04-04 13:00:00 14.7 22 Sudeste 36 Sudeste 0 -- -- 53
2020-04-04 12:00:00 13.2 21 Sudeste 31 Sudeste 0 -- -- 63
2020-04-04 11:00:00 10 8 Sudeste 15 Sudeste 0 -- -- 75
2020-04-04 10:00:00 8.2 4 Sur 8 Sur 0 -- -- 73
2020-04-04 09:00:00 3.7 0 Calma 5 Norte 0 -- -- 90
2020-04-04 08:00:00 1.4 4 Noroeste 8 Noroeste 0 -- -- 90
2020-04-04 07:00:00 1.6 7 Oeste 8 Oeste 0 -- -- 90
2020-04-04 06:00:00 0.9 3 Noroeste 4 Noroeste 0 -- -- 92
2020-04-04 05:00:00 2.1 0 Calma 8 Noroeste 0 -- -- 86
2020-04-04 04:00:00 2.6 5 Noroeste 7 Oeste 0 -- -- 87
2020-04-04 03:00:00 2.9 3 Noroeste 7 Noroeste 0 -- -- 85
2020-04-04 02:00:00 3.9 5 Oeste 8 Noroeste 0 -- -- 82
2020-04-04 01:00:00 4.4 2 Norte 9 Noroeste 0 -- -- 81
2020-04-04 00:00:00 5.6 4 Noroeste 11 Noroeste 0 -- -- 78
2020-04-03 23:00:00 7.3 7 Noroeste 11 Noroeste 0 -- -- 71
2020-04-03 22:00:00 8.9 5 Noroeste 11 Noroeste 0 -- -- 67
2020-04-03 21:00:00 10.8 7 Noroeste 11 Norte 0 -- -- 59
2020-04-03 20:00:00 12.8 6 Norte 15 Norte 0 -- -- 52
2020-04-03 19:00:00 14.5 9 Norte 19 Norte 0 -- -- 42
2020-04-03 18:00:00 15.1 9 Norte 21 Norte 0 -- -- 41
2020-04-03 17:00:00 14.8 13 Norte 24 Noroeste 0 -- -- 42
2020-04-03 16:00:00 14.4 13 Noroeste 30 Noroeste 0 -- -- 48
2020-04-03 15:00:00 13.6 18 Noroeste 35 Noroeste 0 -- -- 48
2020-04-03 14:00:00 12.6 17 Noroeste 33 Noroeste 0 -- -- 55
2020-04-03 13:00:00 11.8 15 Noroeste 32 Noroeste 0 -- -- 57
2020-04-03 12:00:00 10.7 15 Noroeste 33 Noroeste 0 -- -- 60
2020-04-03 11:00:00 9.3 18 Norte 34 Noroeste 0 -- -- 63
2020-04-03 10:00:00 7.1 24 Noroeste 38 Oeste 0 -- -- 66
2020-04-03 09:00:00 5.1 17 Oeste 28 Oeste 0 -- -- 71
2020-04-03 08:00:00 4.2 15 Noroeste 30 Oeste 0 -- -- 74
2020-04-03 07:00:00 4.7 14 Noroeste 26 Noroeste 0 -- -- 72
2020-04-03 06:00:00 4.7 12 Oeste 23 Noroeste 0 -- -- 74
2020-04-03 05:00:00 4.3 4 Sudoeste 27 Noroeste 0 -- -- 74
2020-04-03 04:00:00 5.4 15 Noroeste 28 Noroeste 0 -- -- 71
2020-04-03 03:00:00 5.5 12 Noroeste 32 Noroeste 0 -- -- 71
2020-04-03 02:00:00 6.4 17 Noroeste 39 Noroeste 0 -- -- 66
2020-04-03 01:00:00 6.5 19 Noroeste 46 Noroeste 0 -- -- 68
2020-04-03 00:00:00 6.9 25 Noroeste 46 Norte 0 -- -- 67
2020-04-02 23:00:00 7.1 24 Norte 49 Norte 0 -- -- 66
2020-04-02 22:00:00 8.3 23 Noroeste 40 Norte 0 -- -- 62
2020-04-02 21:00:00 9.9 22 Noroeste 41 Noroeste 0 -- -- 59
2020-04-02 20:00:00 11.6 21 Noroeste 36 Noroeste 0 -- -- 54
2020-04-02 19:00:00 13.5 21 Noroeste 41 Noroeste 0 -- -- 49
2020-04-02 18:00:00 14.3 19 Norte 37 Noroeste 0 -- -- 53
2020-04-02 17:00:00 14.6 21 Noroeste 44 Noroeste 0 -- -- 55
2020-04-02 16:00:00 15.3 23 Norte 38 Noroeste 0 -- -- 53
2020-04-02 15:00:00 15.6 21 Norte 40 Norte 0 -- -- 53
2020-04-02 14:00:00 15.2 19 Norte 35 Noroeste 0 -- -- 57
2020-04-02 13:00:00 14.4 17 Norte 33 Noroeste 0 -- -- 62
2020-04-02 12:00:00 13.3 15 Noroeste 34 Noroeste 0 -- -- 70
2020-04-02 11:00:00 11 13 Oeste 26 Noroeste 0 -- -- 81
2020-04-02 10:00:00 8.8 11 Noroeste 16 Noroeste 0 -- -- 91
2020-04-02 09:00:00 8.3 12 Noroeste 19 Noroeste 0 -- -- 94
2020-04-02 08:00:00 7.5 4 Noroeste 9 Noroeste 0 -- -- 95
2020-04-02 07:00:00 7.7 0 Calma 9 Norte 0 -- -- 94
2020-04-02 06:00:00 7.8 5 Noroeste 10 Noroeste 0 -- -- 95
2020-04-02 05:00:00 7.9 4 Noroeste 6 Noroeste 0 -- -- 96
2020-04-02 04:00:00 8 5 Noroeste 8 Noroeste 0.2 -- -- 96
2020-04-02 03:00:00 7.9 3 Noroeste 4 Noroeste 0 -- -- 97
2020-04-02 02:00:00 7.9 0 Calma -- -- 0.6 -- -- 96
2020-04-02 01:00:00 8 0 Calma -- -- 0.6 -- -- 96
2020-04-02 00:00:00 8.2 0 Calma -- -- 1.2 -- -- 95
2020-04-01 23:00:00 8.4 0 Calma 5 Sudeste 0.2 -- -- 95
2020-04-01 22:00:00 8.8 3 Sudeste 8 Sudeste 0.2 -- -- 93
2020-04-01 21:00:00 9.1 5 Sur 13 Sudeste 0.4 -- -- 91
2020-04-01 20:00:00 9.9 5 Sudeste 11 Sudeste 0 -- -- 89
2020-04-01 19:00:00 10.1 6 Sur 18 Sudeste 0.2 -- -- 88
2020-04-01 18:00:00 10 12 Sudeste 23 Sudeste 0.2 -- -- 86
2020-04-01 17:00:00 10.4 12 Sudeste 28 Sudeste 0.2 -- -- 87
2020-04-01 16:00:00 10.4 10 Sudeste 15 Sudeste 0 -- -- 89
2020-04-01 15:00:00 9.8 7 Sudeste 12 Sudeste 0 -- -- 88
2020-04-01 14:00:00 8.8 0 Calma 4 Este 1.4 -- -- 92
2020-04-01 13:00:00 8 2 Este 5 Este 1.6 -- -- 93
2020-04-01 12:00:00 7.6 0 Calma -- -- 2.2 -- -- 93
2020-04-01 11:00:00 7.4 0 Calma 5 Nordeste 1.4 -- -- 95
2020-04-01 10:00:00 6.4 3 Este 6 Este 1.2 -- -- 97
2020-04-01 09:00:00 6.1 0 Calma 5 Este 0.4 -- -- 96
2020-04-01 08:00:00 6.1 0 Calma 6 Noroeste 0 -- -- 95
2020-04-01 07:00:00 6 3 Noroeste 6 Noroeste 0 -- -- 96
2020-04-01 06:00:00 5.8 2 Noroeste 5 Noroeste 0 -- -- 96
2020-04-01 05:00:00 5.5 2 Noroeste 5 Noroeste 0.2 -- -- 95
2020-04-01 04:00:00 5.4 0 Calma -- -- 0 -- -- 95
2020-04-01 03:00:00 5.3 0 Calma -- -- 0 -- -- 95
2020-04-01 02:00:00 5.2 0 Calma 3 Sur 0 -- -- 95
2020-04-01 01:00:00 5.1 0 Calma 5 Sudeste 0 -- -- 95
2020-04-01 00:00:00 5 0 Calma 4 Sudeste 0 -- -- 95
2020-03-31 23:00:00 4.9 0 Calma 3 Sur 0 -- -- 95
2020-03-31 22:00:00 4.8 2 Sudeste 5 Sudeste 0.2 -- -- 95
2020-03-31 21:00:00 5.1 0 Calma 5 Sur 0.2 -- -- 92
2020-03-31 20:00:00 5.2 0 Calma 5 Sudoeste 0 -- -- 91
2020-03-31 19:00:00 5.4 3 Sudoeste 8 Sur 0.8 -- -- 91
2020-03-31 18:00:00 5.2 0 Calma 5 Sur 1.2 -- -- 92
2020-03-31 17:00:00 4.7 0 Calma 4 Sudeste 1 -- -- 92
2020-03-31 16:00:00 4.1 2 Sur 9 Sur 1.4 -- -- 92
2020-03-31 15:00:00 4 4 Sudeste 8 Sudeste 1 -- -- 92
2020-03-31 14:00:00 3.7 3 Sudeste 6 Sudeste 0.8 -- -- 92
2020-03-31 13:00:00 3 0 Calma -- -- 1 -- -- 93
2020-03-31 12:00:00 1.9 0 Calma -- -- 0.8 -- -- 93
2020-03-31 11:00:00 1.3 0 Calma 2 Oeste 0.8 -- -- 93
2020-03-31 10:00:00 0.7 0 Calma 2 Noroeste 0.6 -- -- 94
2020-03-31 09:00:00 0.4 0 Calma 2 Noroeste 1 -- -- 94
2020-03-31 08:00:00 0.4 0 Calma 4 Oeste 0.4 -- -- 94
2020-03-31 07:00:00 0.5 0 Calma 3 Oeste 0.8 -- -- 94
2020-03-31 06:00:00 0.3 3 Oeste 4 Noroeste 2 -- -- 93
2020-03-31 05:00:00 0.7 0 Calma 6 Este 1.2 -- -- 90
2020-03-31 04:00:00 1.8 5 Este 18 Sudeste 0 -- -- 85
2020-03-31 03:00:00 2.6 2 Este 10 Noroeste 0 -- -- 72
2020-03-31 02:00:00 2.3 8 Noroeste 13 Noroeste 0 -- -- 73
2020-03-31 01:00:00 2.2 8 Norte 17 Norte 0 -- -- 74
2020-03-31 00:00:00 2.7 9 Noroeste 19 Noroeste 0 -- -- 74
2020-03-30 23:00:00 3 8 Norte 20 Noroeste 0 -- -- 71
2020-03-30 22:00:00 3 9 Norte 17 Norte 0 -- -- 70
2020-03-30 21:00:00 3.3 7 Norte 18 Norte 0 -- -- 68
2020-03-30 20:00:00 5 10 Norte 23 Norte 0 -- -- 57
2020-03-30 19:00:00 6.1 14 Norte 32 Norte 0 -- -- 50
2020-03-30 18:00:00 6.3 15 Norte 34 Norte 0 -- -- 46
2020-03-30 17:00:00 6.5 17 Norte 32 Norte 0 -- -- 48
2020-03-30 16:00:00 6.2 18 Norte 32 Norte 0 -- -- 53
2020-03-30 15:00:00 6.1 17 Norte 33 Norte 0 -- -- 52
2020-03-30 14:00:00 5.9 17 Noroeste 30 Noroeste 0 -- -- 51
2020-03-30 13:00:00 5.9 15 Norte 37 Norte 0 -- -- 54
2020-03-30 12:00:00 5.4 15 Norte 30 Norte 0 -- -- 50
2020-03-30 11:00:00 4.2 17 Norte 34 Norte 0 -- -- 61
2020-03-30 10:00:00 3.9 20 Norte 32 Noroeste 0 -- -- 60
2020-03-30 09:00:00 2.4 15 Norte 30 Noroeste 0 -- -- 64
2020-03-30 08:00:00 1.8 18 Noroeste 32 Noroeste 0 -- -- 66
2020-03-30 07:00:00 2.6 17 Noroeste 38 Noroeste 0 -- -- 63
2020-03-30 06:00:00 2.9 22 Noroeste 40 Noroeste 0 -- -- 65
2020-03-30 05:00:00 3 22 Noroeste 44 Noroeste 0 -- -- 70
2020-03-30 04:00:00 3.1 24 Noroeste 40 Noroeste 0 -- -- 75
2020-03-30 03:00:00 4 17 Noroeste 34 Noroeste 0 -- -- 73
2020-03-30 02:00:00 5 17 Norte 36 Norte 0 -- -- 75
2020-03-30 01:00:00 6.8 16 Noroeste 35 Noroeste 0 -- -- 71
2020-03-30 00:00:00 7.4 15 Norte 36 Noroeste 0 -- -- 72
2020-03-29 23:00:00 7.8 17 Noroeste 32 Norte 0 -- -- 76
2020-03-29 22:00:00 8.4 20 Noroeste 40 Norte 0 -- -- 75
2020-03-29 21:00:00 8.5 22 Noroeste 44 Noroeste 0 -- -- 75
2020-03-29 20:00:00 9.5 21 Noroeste 40 Norte 0 -- -- 69
2020-03-29 19:00:00 10.6 22 Noroeste 41 Noroeste 0 -- -- 65
2020-03-29 18:00:00 11.5 20 Noroeste 52 Norte 0 -- -- 64
2020-03-29 17:00:00 12.5 24 Noroeste 51 Noroeste 0 -- -- 59
2020-03-29 16:00:00 13.7 25 Noroeste 49 Noroeste 0 -- -- 52
2020-03-29 15:00:00 13.7 21 Noroeste 43 Noroeste 0 -- -- 51
2020-03-29 14:00:00 13.5 21 Norte 40 Noroeste 0 -- -- 49
2020-03-29 13:00:00 12.9 21 Norte 36 Norte 0 -- -- 51
2020-03-29 12:00:00 12 17 Norte 42 Noroeste 0 -- -- 57
2020-03-29 11:00:00 9.9 24 Noroeste 46 Noroeste 0 -- -- 61
2020-03-29 10:00:00 8.6 24 Noroeste 44 Noroeste 0 -- -- 65
2020-03-29 09:00:00 7.1 17 Noroeste 33 Noroeste 0 -- -- 70
2020-03-29 08:00:00 6.6 17 Noroeste 31 Noroeste 0 -- -- 67
2020-03-29 07:00:00 6.6 19 Noroeste 33 Noroeste 0 -- -- 68
2020-03-29 06:00:00 6.1 15 Noroeste 28 Noroeste 0 -- -- 66
2020-03-29 05:00:00 6.1 20 Noroeste 28 Noroeste 0 -- -- 61
2020-03-29 03:00:00 7.8 16 Noroeste 29 Noroeste 0 -- -- 58
2020-03-29 01:00:00 8.2 18 Noroeste 31 Noroeste 0 -- -- 61
2020-03-29 00:00:00 8.7 14 Noroeste 22 Noroeste 0 -- -- 61
2020-03-28 23:00:00 8.9 8 Noroeste 15 Noroeste 0 -- -- 64
2020-03-28 22:00:00 10.4 4 Oeste 19 Norte 0 -- -- 60
2020-03-28 21:00:00 11.4 8 Norte 18 Norte 0 -- -- 54
2020-03-28 20:00:00 12 6 Norte 23 Norte 0 -- -- 59
2020-03-28 19:00:00 14.6 12 Norte 22 Noroeste 0 -- -- 51
2020-03-28 18:00:00 17.2 8 Norte 14 Noroeste 0 -- -- 40
2020-03-28 17:00:00 17.6 5 Noroeste 17 Oeste 0 -- -- 37
2020-03-28 16:00:00 17.4 8 Noroeste 15 Norte 0 -- -- 37
2020-03-28 15:00:00 16.6 6 Noroeste 17 Noroeste 0 -- -- 39
2020-03-28 14:00:00 15.6 9 Noroeste 20 Noroeste 0 -- -- 45
2020-03-28 13:00:00 14.3 10 Noroeste 18 Noroeste 0 -- -- 44
2020-03-28 12:00:00 13.4 6 Oeste 15 Oeste 0 -- -- 54
2020-03-28 11:00:00 11.7 4 Oeste 10 Oeste 0 -- -- 52
2020-03-28 10:00:00 9.6 3 Noroeste 8 Noroeste 0 -- -- 62
2020-03-28 09:00:00 6.5 0 Calma 3 Norte 0 -- -- 74
2020-03-28 08:00:00 3.2 0 Calma 7 Noroeste 0 -- -- 83
2020-03-28 07:00:00 1 3 Noroeste 8 Noroeste 0 -- -- 87
2020-03-28 06:00:00 1.4 4 Noroeste 8 Noroeste 0 -- -- 87
2020-03-28 05:00:00 1 2 Noroeste 7 Noroeste 0 -- -- 88
2020-03-28 04:00:00 1.7 3 Noroeste 4 Noroeste 0 -- -- 86
2020-03-28 03:00:00 2 4 Noroeste 6 Noroeste 0 -- -- 87
2020-03-28 02:00:00 3 0 Calma 7 Noroeste 0 -- -- 83
2020-03-28 01:00:00 4.7 7 Noroeste 10 Noroeste 0 -- -- 77
2020-03-28 00:00:00 4.8 0 Calma 11 Noroeste 0 -- -- 75
2020-03-27 23:00:00 6.6 7 Noroeste 13 Noroeste 0 -- -- 67
2020-03-27 22:00:00 7.3 8 Noroeste 16 Noroeste 0 -- -- 66
2020-03-27 21:00:00 8.2 3 Noroeste 9 Noroeste 0 -- -- 62
2020-03-27 20:00:00 10.3 7 Noroeste 12 Noroeste 0 -- -- 49
2020-03-27 19:00:00 12.1 2 Sur 14 Sudoeste 0 -- -- 46
2020-03-27 18:00:00 13.8 5 Sudoeste 21 Sur 0 -- -- 39
2020-03-27 17:00:00 14.4 4 Sudoeste 15 Sur 0 -- -- 39
2020-03-27 16:00:00 14.3 3 Sur 18 Sur 0 -- -- 41
2020-03-27 15:00:00 14 6 Sudoeste 19 Oeste 0 -- -- 42
2020-03-27 14:00:00 13 5 Oeste 15 Oeste 0 -- -- 39
2020-03-27 13:00:00 11.8 5 Oeste 15 Oeste 0 -- -- 43
2020-03-27 12:00:00 10.5 6 Noroeste 15 Noroeste 0 -- -- 52
2020-03-27 11:00:00 9.3 4 Oeste 10 Oeste 0 -- -- 54
2020-03-27 10:00:00 7.5 4 Noroeste 14 Noroeste 0 -- -- 62
2020-03-27 09:00:00 5.5 9 Noroeste 13 Noroeste 0 -- -- 67
2020-03-27 08:00:00 2.6 8 Noroeste 13 Noroeste 0 -- -- 77
2020-03-27 07:00:00 1.3 6 Noroeste 9 Noroeste 0 -- -- 82
2020-03-27 06:00:00 2.6 3 Oeste 7 Oeste 0 -- -- 80
2020-03-27 05:00:00 3.8 2 Noroeste 6 Noroeste 0 -- -- 78
2020-03-27 04:00:00 4.4 3 Oeste 10 Noroeste 0 -- -- 72
2020-03-27 03:00:00 4.4 5 Noroeste 10 Noroeste 0 -- -- 71
2020-03-27 02:00:00 4.4 3 Noroeste 6 Oeste 0 -- -- 70
2020-03-27 01:00:00 3.6 6 Noroeste 12 Oeste 0 -- -- 72
2020-03-27 00:00:00 2.9 4 Sudoeste 16 Noroeste 0 -- -- 70
2020-03-26 23:00:00 3 8 Noroeste 18 Noroeste 0 -- -- 70
2020-03-26 22:00:00 4.2 9 Noroeste 22 Norte 0 -- -- 64
2020-03-26 21:00:00 4.6 11 Norte 22 Norte 0 -- -- 59
2020-03-26 20:00:00 6 11 Noroeste 30 Norte 0 -- -- 53
2020-03-26 19:00:00 7.1 18 Norte 34 Norte 0 -- -- 47
2020-03-26 18:00:00 9 22 Norte 36 Noroeste 0 -- -- 40
2020-03-26 17:00:00 10.5 14 Norte 40 Noroeste 0 -- -- 35
2020-03-26 16:00:00 10.6 21 Noroeste 38 Noroeste 0 -- -- 38
2020-03-26 15:00:00 10.9 19 Norte 40 Norte 0 -- -- 39
2020-03-26 14:00:00 10.5 21 Norte 49 Noroeste 0 -- -- 42
2020-03-26 13:00:00 10.2 28 Noroeste 48 Noroeste 0 -- -- 45
2020-03-26 12:00:00 10.1 21 Norte 50 Noroeste 0 -- -- 49
2020-03-26 11:00:00 9.7 29 Norte 49 Noroeste 0 -- -- 47
2020-03-26 10:00:00 8.3 20 Noroeste 48 Noroeste 0 -- -- 59
2020-03-26 09:00:00 7.9 18 Noroeste 38 Noroeste 0 -- -- 62
2020-03-26 08:00:00 7.8 18 Noroeste 30 Noroeste 0 -- -- 68
2020-03-26 07:00:00 6 13 Noroeste 21 Noroeste 0 -- -- 83
2020-03-26 06:00:00 4.7 3 Oeste 12 Noroeste 0 -- -- 87
2020-03-26 05:00:00 4.1 5 Noroeste 10 Noroeste 0 -- -- 85
2020-03-26 04:00:00 4.1 5 Noroeste 21 Noroeste 0 -- -- 82
2020-03-26 03:00:00 4.5 12 Noroeste 21 Oeste 0 -- -- 79
2020-03-26 02:00:00 3.9 4 Oeste 15 Noroeste 0 -- -- 79
2020-03-26 01:00:00 4.1 12 Noroeste 23 Noroeste 0 -- -- 80
2020-03-26 00:00:00 5 9 Noroeste 19 Noroeste 0 -- -- 78
2020-03-25 23:00:00 6.5 4 Noroeste 10 Oeste 0 -- -- 87
2020-03-25 22:00:00 6.2 0 Calma 11 Sur 0 -- -- 87
2020-03-25 21:00:00 6.8 7 Sur 13 Sur 0 -- -- 84
2020-03-25 20:00:00 7.7 5 Sudeste 17 Sudeste 0 -- -- 80
2020-03-25 19:00:00 9 13 Sudeste 19 Sudeste 0 -- -- 77
2020-03-25 18:00:00 10.3 13 Sudeste 25 Sudeste 0 -- -- 72
2020-03-25 17:00:00 10.9 14 Sudeste 26 Sudeste 0 -- -- 71
2020-03-25 16:00:00 10.9 17 Sudeste 26 Sudeste 0 -- -- 73
2020-03-25 15:00:00 11.4 13 Sudeste 23 Sudeste 0 -- -- 69
2020-03-25 14:00:00 10 15 Sudeste 26 Sudeste 0 -- -- 78
2020-03-25 13:00:00 8.2 18 Sudeste 28 Sudeste 0 -- -- 84
2020-03-25 12:00:00 8 14 Sudeste 24 Sudeste 0 -- -- 86
2020-03-25 11:00:00 8 13 Sudeste 20 Sudeste 0 -- -- 87
2020-03-25 10:00:00 8.4 9 Sudeste 15 Sur 0 -- -- 85
2020-03-25 09:00:00 8.2 7 Sur 14 Sur 0 -- -- 87
2020-03-25 08:00:00 8 5 Sur 9 Sur 0 -- -- 88
2020-03-25 07:00:00 7.9 3 Sur 11 Sur 0 -- -- 87
2020-03-25 06:00:00 7.7 5 Sudeste 8 Sudeste 0 -- -- 88
2020-03-25 05:00:00 7.7 0 Calma 12 Sudeste 0 -- -- 87
2020-03-25 04:00:00 8.3 7 Sudeste 21 Sudeste 0 -- -- 85
2020-03-25 03:00:00 8.4 8 Sudeste 15 Sudeste 0 -- -- 87
2020-03-25 02:00:00 8.4 7 Sudeste 16 Sudeste 0 -- -- 86
2020-03-25 01:00:00 7.3 7 Este 15 Este 0 -- -- 91
2020-03-25 00:00:00 6.3 0 Calma 6 Sudeste 0 -- -- 92
2020-03-24 23:00:00 7.6 0 Calma 7 Noroeste 0 -- -- 87
2020-03-24 22:00:00 8.7 4 Noroeste 5 Noroeste 0 -- -- 89
2020-03-24 21:00:00 9.9 3 Este 6 Sudeste 0 -- -- 84
2020-03-24 20:00:00 11.9 0 Calma 5 Sur 0 -- -- 76
2020-03-24 19:00:00 14.1 3 Sudoeste 11 Sur 0 -- -- 64
2020-03-24 18:00:00 15.4 6 Sur 14 Sur 0 -- -- 59
2020-03-24 17:00:00 15.8 4 Sudoeste 14 Sur 0 -- -- 59
2020-03-24 16:00:00 15.7 4 Sudoeste 13 Oeste 0 -- -- 59
2020-03-24 15:00:00 15.1 4 Oeste 12 Sudoeste 0 -- -- 64
2020-03-24 14:00:00 14.6 3 Sudoeste 15 Sudeste 0 -- -- 59
2020-03-24 13:00:00 13.7 8 Sudeste 16 Sudeste 0 -- -- 65
2020-03-24 12:00:00 12.3 6 Sudeste 17 Sur 0 -- -- 71
2020-03-24 11:00:00 11.8 9 Sur 19 Sudeste 0 -- -- 77
2020-03-24 10:00:00 10.9 8 Sudeste 14 Sudeste 0 -- -- 79
2020-03-24 09:00:00 10 0 Calma 8 Sudeste 0 -- -- 86
2020-03-24 08:00:00 9.6 2 Sur 6 Sudeste 0 -- -- 87
2020-03-24 07:00:00 9.1 3 Nordeste 10 Sudeste 0 -- -- 88
2020-03-24 06:00:00 9.8 9 Sudeste 18 Sudeste 0 -- -- 84
2020-03-24 05:00:00 10.1 11 Sudeste 17 Sudeste 0 -- -- 83
2020-03-24 04:00:00 10.3 5 Sudeste 10 Sudeste 0 -- -- 87
2020-03-24 03:00:00 9.6 0 Calma 12 Sudeste 0 -- -- 90
2020-03-24 02:00:00 10.2 9 Sudeste 15 Este 0 -- -- 88
2020-03-24 01:00:00 10.7 7 Este 12 Este 0 -- -- 85
2020-03-24 00:00:00 10.6 5 Este 13 Sudeste 0 -- -- 86
2020-03-23 23:00:00 10.6 7 Sudeste 10 Este 0 -- -- 85
2020-03-23 22:00:00 10.3 2 Este 7 Este 0 -- -- 88
2020-03-23 21:00:00 10.5 0 Calma 8 Este 0 -- -- 88
2020-03-23 20:00:00 10.7 3 Sudeste 6 Sudeste 0 -- -- 87
2020-03-23 19:00:00 10.8 3 Este 17 Este 0.6 -- -- 87
2020-03-23 18:00:00 10.9 7 Este 35 Este 0.8 -- -- 83
2020-03-23 17:00:00 15.5 9 Sur 15 Sudeste 0 -- -- 60
2020-03-23 16:00:00 14.9 3 Sudeste 12 Sudeste 0 -- -- 64
2020-03-23 15:00:00 14.7 4 Sudeste 10 Este 1 -- -- 69
2020-03-23 14:00:00 13.2 8 Sudeste 23 Sudeste 0.2 -- -- 77
2020-03-23 13:00:00 14.7 10 Sudeste 17 Sudeste 0 -- -- 67
2020-03-23 12:00:00 13.7 9 Sudeste 16 Sudeste 0 -- -- 67
2020-03-23 11:00:00 13.3 4 Sudeste 8 Sudeste 0 -- -- 68
2020-03-23 10:00:00 13.2 0 Calma 5 Norte 0 -- -- 74
2020-03-23 09:00:00 11 0 Calma 5 Noroeste 0 -- -- 84
2020-03-23 08:00:00 9.2 3 Noroeste 5 Noroeste 0 -- -- 92
2020-03-23 07:00:00 8.9 2 Norte 5 Norte 0 -- -- 93
2020-03-23 06:00:00 9.3 0 Calma 5 Nordeste 0 -- -- 91
2020-03-23 05:00:00 9.5 0 Calma 7 Nordeste 0 -- -- 88
2020-03-23 04:00:00 9.8 0 Calma 6 Este 0 -- -- 87
2020-03-23 03:00:00 9.9 4 Sudeste 12 Este 0 -- -- 88
2020-03-23 02:00:00 10.1 5 Este 15 Este 3 -- -- 89
2020-03-23 01:00:00 10.5 10 Sudeste 17 Este 0 -- -- 85
2020-03-23 00:00:00 10.6 3 Este 10 Este 0 -- -- 80
2020-03-22 23:00:00 11.1 5 Este 14 Sudeste 0 -- -- 76
2020-03-22 22:00:00 11.7 5 Norte 12 Noroeste 0 -- -- 76
2020-03-22 21:00:00 11.8 6 Noroeste 10 Noroeste 0 -- -- 74
2020-03-22 20:00:00 11.2 0 Calma 6 Sudeste 0 -- -- 73
2020-03-22 19:00:00 14 5 Sudeste 14 Sudeste 0 -- -- 57
2020-03-22 18:00:00 15.2 9 Sudeste 19 Sudeste 0 -- -- 55
2020-03-22 17:00:00 15.8 12 Sudeste 18 Sur 0 -- -- 52
2020-03-22 16:00:00 16.3 10 Sur 18 Sur 0 -- -- 49
2020-03-22 15:00:00 16.2 8 Sur 16 Sudeste 0 -- -- 52
2020-03-22 14:00:00 15.3 8 Sur 17 Sur 0 -- -- 59
2020-03-22 13:00:00 14.5 8 Sudeste 15 Sudeste 0 -- -- 60
2020-03-22 12:00:00 13.5 5 Sur 13 Sur 0 -- -- 60
2020-03-22 11:00:00 12.1 3 Sur 8 Sur 0 -- -- 66
2020-03-22 10:00:00 9.2 0 Calma 4 Sudeste 0 -- -- 77
2020-03-22 09:00:00 7.5 0 Calma 4 Noroeste 0 -- -- 81
2020-03-22 08:00:00 4.9 3 Oeste 5 Noroeste 0 -- -- 87
2020-03-22 07:00:00 4.5 4 Noroeste 8 Noroeste 0 -- -- 84
2020-03-22 06:00:00 5 5 Noroeste 8 Noroeste 0 -- -- 82
2020-03-22 05:00:00 4.9 4 Noroeste 9 Oeste 0 -- -- 84
2020-03-22 04:00:00 4.9 6 Oeste 10 Oeste 0 -- -- 85
2020-03-22 03:00:00 5 0 Calma 7 Este 0 -- -- 84
2020-03-22 02:00:00 4.8 0 Calma 5 Oeste 0 -- -- 87
2020-03-22 01:00:00 6 2 Noroeste 5 Oeste 0 -- -- 85
2020-03-22 00:00:00 6.5 4 Noroeste 6 Oeste 0 -- -- 84
2020-03-21 23:00:00 6.6 2 Oeste 9 Noroeste 0 -- -- 83
2020-03-21 22:00:00 7.3 0 Calma 5 Oeste 0 -- -- 81
2020-03-21 21:00:00 9.2 3 Este 9 Sur 0 -- -- 74
2020-03-21 20:00:00 10.4 3 Este 12 Este 0 -- -- 72
2020-03-21 19:00:00 12.7 6 Este 15 Sudeste 0 -- -- 63
2020-03-21 18:00:00 14.1 10 Sudeste 24 Sudeste 0 -- -- 54
2020-03-21 17:00:00 14.7 14 Sudeste 26 Sudeste 0 -- -- 50
2020-03-21 16:00:00 15 15 Sudeste 27 Sudeste 0 -- -- 47
2020-03-21 15:00:00 14.8 15 Sudeste 31 Sudeste 0 -- -- 50
2020-03-21 14:00:00 14.3 13 Sudeste 30 Sudeste 0 -- -- 53
2020-03-21 13:00:00 13.4 14 Sudeste 29 Sudeste 0 -- -- 57
2020-03-21 12:00:00 12.7 14 Sudeste 29 Sudeste 0 -- -- 63
2020-03-21 11:00:00 11.3 9 Sur 17 Sur 0 -- -- 71
2020-03-21 10:00:00 9.7 4 Sur 9 Sur 0 -- -- 76
2020-03-21 09:00:00 7.8 3 Sudeste 6 Sudeste 0 -- -- 82
2020-03-21 08:00:00 5.9 4 Sudoeste 10 Sudeste 0 -- -- 88
2020-03-21 07:00:00 6.4 6 Sudeste 11 Sudeste 0 -- -- 84
2020-03-21 06:00:00 6.7 6 Sur 15 Sudeste 0 -- -- 84
2020-03-21 05:00:00 6.6 9 Sudeste 17 Sudeste 0 -- -- 85
2020-03-21 04:00:00 6.4 5 Este 11 Sudeste 0 -- -- 86
2020-03-21 03:00:00 5.9 3 Sudeste 9 Sudeste 0 -- -- 87
2020-03-21 02:00:00 6.8 5 Sudeste 9 Sudeste 0 -- -- 86
2020-03-21 01:00:00 7.2 0 Calma 8 Sudeste 0 -- -- 85
2020-03-21 00:00:00 8 5 Este 12 Este 0 -- -- 82
2020-03-20 23:00:00 9.2 8 Sudeste 14 Sudeste 0 -- -- 78
2020-03-20 22:00:00 9.8 10 Sudeste 19 Este 0 -- -- 76
2020-03-20 21:00:00 10.2 10 Sudeste 16 Sudeste 0 -- -- 76
2020-03-20 20:00:00 11.2 6 Este 17 Sudeste 0 -- -- 75
2020-03-20 19:00:00 12.9 13 Sudeste 31 Sudeste 0 -- -- 67
2020-03-20 18:00:00 14.1 16 Sudeste 31 Sudeste 0 -- -- 62
2020-03-20 17:00:00 14.5 18 Sudeste 35 Sudeste 0 -- -- 59
2020-03-20 16:00:00 14.9 20 Sudeste 35 Sudeste 0 -- -- 57
2020-03-20 15:00:00 14.1 22 Sudeste 36 Sudeste 0 -- -- 60
2020-03-20 14:00:00 13.4 19 Sudeste 34 Sudeste 0 -- -- 67
2020-03-20 13:00:00 12.8 20 Sudeste 33 Sudeste 0 -- -- 66
2020-03-20 12:00:00 11.5 17 Sudeste 35 Sudeste 0 -- -- 71
2020-03-20 11:00:00 10.2 16 Sudeste 31 Sudeste 0 -- -- 78
2020-03-20 10:00:00 9.3 17 Sudeste 27 Sudeste 0 -- -- 79
2020-03-20 09:00:00 7.6 8 Sudeste 12 Sur 0 -- -- 85
2020-03-20 08:00:00 5.1 3 Sur 6 Sudeste 0 -- -- 94
2020-03-20 07:00:00 4.7 4 Sudeste 10 Sudeste 0 -- -- 91
2020-03-20 06:00:00 5.3 5 Este 14 Sudeste 0 -- -- 89
2020-03-20 05:00:00 7.1 9 Sudeste 21 Sudeste 0 -- -- 82
2020-03-20 04:00:00 7.6 12 Sudeste 19 Sudeste 0 -- -- 82
2020-03-20 03:00:00 7.6 9 Sur 17 Sudeste 0 -- -- 84
2020-03-20 02:00:00 9 11 Sudeste 22 Sudeste 0 -- -- 78
2020-03-20 01:00:00 8.9 9 Sudeste 17 Sudeste 0 -- -- 81
2020-03-20 00:00:00 9.9 11 Sudeste 18 Sudeste 0 -- -- 84
2020-03-19 23:00:00 10.7 9 Sudeste 19 Sudeste 0 -- -- 80
2020-03-19 22:00:00 10.5 5 Sudeste 12 Sudeste 0 -- -- 80
2020-03-19 21:00:00 11.3 9 Sudeste 15 Sudeste 0 -- -- 72
2020-03-19 20:00:00 11.7 5 Sudeste 17 Sudeste 0 -- -- 82
2020-03-19 19:00:00 14.3 10 Sudeste 21 Sudeste 0 -- -- 73
2020-03-19 18:00:00 15.4 10 Sudeste 24 Sudeste 0 -- -- 68
2020-03-19 17:00:00 15.9 17 Sudeste 27 Sudeste 0 -- -- 63
2020-03-19 16:00:00 16.5 17 Sudeste 28 Sur 0 -- -- 59
2020-03-19 15:00:00 16.7 17 Sudeste 27 Sudeste 0 -- -- 61
2020-03-19 14:00:00 15.7 12 Sudeste 21 Sudeste 0 -- -- 69
2020-03-19 13:00:00 15.6 10 Sudeste 23 Sur 0 -- -- 70
2020-03-19 12:00:00 14.4 8 Sudeste 19 Sudeste 0 -- -- 75
2020-03-19 11:00:00 13.3 11 Sudeste 16 Sudeste 0 -- -- 81
2020-03-19 10:00:00 11.4 4 Sudeste 7 Sudeste 0 -- -- 87
2020-03-19 09:00:00 8.9 0 Calma 3 Noroeste 0 -- -- 96
2020-03-19 08:00:00 6.7 0 Calma 4 Noroeste 0 -- -- 96
2020-03-19 07:00:00 6.2 0 Calma 4 Norte 0 -- -- 96
2020-03-19 06:00:00 6.6 0 Calma 6 Oeste 0 -- -- 94
2020-03-19 05:00:00 7.6 5 Oeste 8 Oeste 0 -- -- 94
2020-03-19 04:00:00 8.1 0 Calma 8 Oeste 0 -- -- 92
2020-03-19 03:00:00 8.4 4 Noroeste 6 Oeste 0 -- -- 92
2020-03-19 02:00:00 8.4 0 Calma 4 Oeste 0 -- -- 94
2020-03-19 01:00:00 8.8 3 Oeste 6 Oeste 0 -- -- 93
2020-03-19 00:00:00 9.1 2 Oeste 4 Oeste 0 -- -- 92
2020-03-18 23:00:00 9.1 0 Calma 5 Oeste 0 -- -- 93
2020-03-18 22:00:00 9.8 2 Oeste 4 Oeste 0 -- -- 91
2020-03-18 21:00:00 11 2 Este 4 Este 0 -- -- 88
2020-03-18 20:00:00 12.3 0 Calma 7 Sudeste 0 -- -- 83
2020-03-18 19:00:00 14.2 6 Sudeste 17 Sudeste 0 -- -- 75
2020-03-18 18:00:00 15.1 9 Sudeste 16 Sudeste 0 -- -- 72
2020-03-18 17:00:00 15.8 8 Sur 15 Sudeste 0 -- -- 70
2020-03-18 16:00:00 16.4 9 Sur 17 Sur 0 -- -- 64
2020-03-18 15:00:00 16.2 9 Sur 17 Sur 0 -- -- 67
2020-03-18 14:00:00 15.5 7 Sudeste 13 Sudeste 0 -- -- 69
2020-03-18 13:00:00 14.6 7 Sudeste 14 Sudeste 0 -- -- 77
2020-03-18 12:00:00 14 6 Sudeste 11 Sur 0 -- -- 77
2020-03-18 11:00:00 12.3 4 Sur 6 Sur 0 -- -- 85
2020-03-18 10:00:00 10.1 0 Calma 3 Sur 0 -- -- 90
2020-03-18 09:00:00 7.2 0 Calma 6 Noroeste 0 -- -- 97
2020-03-18 08:00:00 5.1 3 Noroeste 4 Noroeste 0 -- -- 96
2020-03-18 07:00:00 5.4 2 Este 4 Nordeste 0 -- -- 95
2020-03-18 06:00:00 6.5 3 Noroeste 6 Oeste 0 -- -- 94
2020-03-18 05:00:00 6.8 3 Norte 8 Noroeste 0 -- -- 94
2020-03-18 04:00:00 7.2 4 Noroeste 8 Noroeste 0 -- -- 94
2020-03-18 03:00:00 6.9 4 Noroeste 8 Oeste 0 -- -- 95
2020-03-18 02:00:00 6.6 4 Noroeste 7 Noroeste 0 -- -- 95
2020-03-18 01:00:00 6.9 4 Noroeste 8 Oeste 0 -- -- 95
2020-03-18 00:00:00 6.9 3 Noroeste 4 Noroeste 0 -- -- 95
2020-03-17 23:00:00 8.5 0 Calma 8 Noroeste 0 -- -- 92
2020-03-17 22:00:00 9.1 5 Oeste 7 Oeste 0 -- -- 93
2020-03-17 21:00:00 9.8 0 Calma 6 Noroeste 0 -- -- 90
2020-03-17 20:00:00 11.2 3 Noroeste 5 Noroeste 0 -- -- 87
2020-03-17 19:00:00 12.2 3 Oeste 6 Norte 0 -- -- 84
2020-03-17 18:00:00 12.8 4 Noroeste 9 Sur 0 -- -- 82
2020-03-17 17:00:00 13.1 3 Sur 8 Sudoeste 0 -- -- 77
2020-03-17 16:00:00 13.2 0 Calma 5 Sur 0 -- -- 75
2020-03-17 15:00:00 12.6 0 Calma 4 Sudoeste 0 -- -- 77
2020-03-17 14:00:00 12 0 Calma 6 Oeste 0 -- -- 76
2020-03-17 13:00:00 11.4 3 Noroeste 10 Noroeste 0 -- -- 81
2020-03-17 12:00:00 10.9 0 Calma 6 Noroeste 0 -- -- 82
2020-03-17 11:00:00 10.7 5 Noroeste 9 Oeste 0 -- -- 81
2020-03-17 10:00:00 10.3 0 Calma 6 Noroeste 0 -- -- 84
2020-03-17 09:00:00 9.9 0 Calma 9 Norte 0 -- -- 85
2020-03-17 08:00:00 9.8 6 Norte 13 Noroeste 0 -- -- 83
2020-03-17 07:00:00 9.8 6 Norte 12 Norte 0 -- -- 80
2020-03-17 06:00:00 9.8 0 Calma 10 Noroeste 0 -- -- 80
2020-03-17 05:00:00 9.8 6 Noroeste 17 Norte 0 -- -- 80
2020-03-17 04:00:00 9.5 7 Noroeste 15 Norte 0 -- -- 83
2020-03-17 03:00:00 9.4 5 Noroeste 18 Noroeste 0 -- -- 82
2020-03-17 02:00:00 9.5 10 Noroeste 23 Noroeste 0 -- -- 83
2020-03-17 01:00:00 9.1 13 Noroeste 24 Noroeste 0 -- -- 85
2020-03-17 00:00:00 8.8 14 Noroeste 27 Noroeste 0.2 -- -- 87
2020-03-16 23:00:00 8.7 16 Noroeste 32 Norte 2 -- -- 89
2020-03-16 22:00:00 9.9 17 Norte 35 Noroeste 0 -- -- 75
2020-03-16 21:00:00 10 16 Norte 38 Norte 0 -- -- 75
2020-03-16 20:00:00 9.8 17 Norte 38 Norte 0 -- -- 76
2020-03-16 19:00:00 9.3 17 Norte 44 Norte 0 -- -- 80
2020-03-16 18:00:00 9.2 18 Norte 35 Norte 0 -- -- 80
2020-03-16 17:00:00 8.9 21 Norte 35 Norte 0 -- -- 82
2020-03-16 16:00:00 8.1 16 Norte 30 Noroeste 0.2 -- -- 90
2020-03-16 15:00:00 7.4 13 Noroeste 27 Norte 0.2 -- -- 94
2020-03-16 14:00:00 7.3 15 Norte 26 Norte 0 -- -- 92
2020-03-16 13:00:00 7.1 8 Norte 22 Noroeste 0.4 -- -- 95
2020-03-16 12:00:00 6.3 15 Noroeste 32 Noroeste 1 -- -- 96
2020-03-16 11:00:00 4.8 24 Noroeste 34 Noroeste 1.2 -- -- 97
2020-03-16 10:00:00 4.8 23 Noroeste 32 Noroeste 2.6 -- -- 97
2020-03-16 09:00:00 4.7 23 Noroeste 36 Oeste 2.2 -- -- 97
2020-03-16 08:00:00 5.1 16 Noroeste 25 Noroeste 2 -- -- 96
2020-03-16 07:00:00 5 14 Noroeste 31 Noroeste 1.8 -- -- 96
2020-03-16 06:00:00 5.3 18 Noroeste 29 Noroeste 3.4 -- -- 96
2020-03-16 05:00:00 5.7 13 Noroeste 29 Noroeste 2.6 -- -- 96
2020-03-16 04:00:00 5.6 15 Norte 30 Norte 2.4 -- -- 96
2020-03-16 03:00:00 5.8 16 Noroeste 35 Noroeste 2.8 -- -- 95
2020-03-16 02:00:00 7 15 Norte 26 Noroeste 1.8 -- -- 96
2020-03-16 01:00:00 7.4 9 Norte 39 Norte 3.2 -- -- 96
2020-03-16 00:00:00 9.1 9 Norte 33 Sudeste 3.2 -- -- 88
2020-03-15 23:00:00 9.7 3 Oeste 16 Sudeste 1 -- -- 91
2020-03-15 22:00:00 9.1 10 Este 15 Este 2.4 -- -- 93
2020-03-15 21:00:00 8.8 8 Sudeste 35 Sudoeste 6.2 -- -- 87
2020-03-15 20:00:00 12.7 15 Sudeste 26 Sudeste 1 -- -- 84
2020-03-15 19:00:00 14.5 4 Sur 27 Sudeste 0.2 -- -- 73
2020-03-15 18:00:00 15 18 Sudeste 36 Sudeste 0 -- -- 63
2020-03-15 17:00:00 15.9 20 Sudeste 43 Sudeste 0 -- -- 60
2020-03-15 16:00:00 16.6 23 Sudeste 43 Sudeste 0 -- -- 56
2020-03-15 15:00:00 18.2 27 Sudeste 39 Sudeste 0 -- -- 50
2020-03-15 14:00:00 17.8 23 Sudeste 48 Sudeste 0 -- -- 50
2020-03-15 13:00:00 16.7 28 Sudeste 46 Sudeste 0 -- -- 50
2020-03-15 12:00:00 15.5 25 Sudeste 41 Sudeste 0 -- -- 57
2020-03-15 11:00:00 13.6 24 Sudeste 40 Sudeste 0 -- -- 64
2020-03-15 10:00:00 11.2 17 Sudeste 26 Sur 0 -- -- 75
2020-03-15 09:00:00 6.5 3 Sudeste 6 Sudeste 0 -- -- 83
2020-03-15 08:00:00 1.7 0 Calma 5 Noroeste 0 -- -- 87
2020-03-15 07:00:00 1.5 3 Noroeste 10 Oeste 0 -- -- 86
2020-03-15 06:00:00 1.6 3 Noroeste 8 Norte 0 -- -- 87
2020-03-15 05:00:00 1.9 6 Noroeste 9 Noroeste 0 -- -- 82
2020-03-15 04:00:00 1.9 8 Oeste 10 Oeste 0 -- -- 82
2020-03-15 03:00:00 1.5 4 Noroeste 6 Oeste 0 -- -- 86
2020-03-15 02:00:00 2.2 0 Calma 9 Oeste 0 -- -- 82
2020-03-15 01:00:00 4.2 8 Noroeste 11 Noroeste 0 -- -- 74
2020-03-15 00:00:00 4.8 2 Nordeste 9 Sudeste 0 -- -- 70
2020-03-14 23:00:00 7.8 3 Sudoeste 18 Norte 0 -- -- 67
2020-03-14 22:00:00 8.2 11 Norte 15 Norte 0 -- -- 68
2020-03-14 21:00:00 9.3 5 Norte 19 Noroeste 0 -- -- 63
2020-03-14 20:00:00 10.4 11 Norte 24 Norte 0 -- -- 60
2020-03-14 19:00:00 12.2 12 Norte 27 Norte 0 -- -- 55
2020-03-14 18:00:00 14 16 Norte 31 Norte 0 -- -- 52
2020-03-14 17:00:00 14.9 18 Norte 31 Norte 0 -- -- 48
2020-03-14 16:00:00 15.2 14 Norte 29 Norte 0 -- -- 52
2020-03-14 15:00:00 15.2 14 Norte 37 Noroeste 0 -- -- 51
2020-03-14 14:00:00 14.6 17 Norte 30 Noroeste 0 -- -- 52
2020-03-14 13:00:00 14 13 Norte 31 Norte 0 -- -- 48
2020-03-14 12:00:00 12.6 17 Norte 32 Norte 0 -- -- 53
2020-03-14 11:00:00 11.4 15 Norte 32 Noroeste 0 -- -- 57
2020-03-14 10:00:00 9.8 15 Norte 27 Noroeste 0 -- -- 57
2020-03-14 09:00:00 6.7 13 Noroeste 26 Noroeste 0 -- -- 72
2020-03-14 08:00:00 4.6 17 Noroeste 23 Noroeste 0 -- -- 81
2020-03-14 07:00:00 3.3 9 Noroeste 31 Noroeste 0 -- -- 87
2020-03-14 06:00:00 4.3 14 Noroeste 24 Oeste 0 -- -- 85
2020-03-14 05:00:00 5 14 Noroeste 28 Noroeste 0 -- -- 83
2020-03-14 04:00:00 5.4 15 Noroeste 26 Noroeste 0 -- -- 82
2020-03-14 03:00:00 6.1 18 Noroeste 33 Noroeste 0 -- -- 80
2020-03-14 02:00:00 6.2 13 Noroeste 26 Noroeste 0 -- -- 80
2020-03-14 01:00:00 6.3 12 Noroeste 27 Noroeste 0 -- -- 80
2020-03-14 00:00:00 7 17 Noroeste 28 Noroeste 0 -- -- 77
2020-03-13 23:00:00 7.1 15 Noroeste 24 Noroeste 0 -- -- 78
2020-03-13 22:00:00 7.2 13 Noroeste 23 Norte 0 -- -- 79
2020-03-13 21:00:00 7.6 14 Norte 26 Norte 0 -- -- 77
2020-03-13 20:00:00 8.4 13 Norte 27 Noroeste 0 -- -- 74
2020-03-13 19:00:00 9.5 14 Noroeste 30 Noroeste 0 -- -- 72
2020-03-13 18:00:00 10.1 19 Norte 35 Norte 0 -- -- 71
2020-03-13 17:00:00 11 17 Norte 29 Noroeste 0 -- -- 70
2020-03-13 16:00:00 12 14 Norte 30 Norte 0 -- -- 69
2020-03-13 15:00:00 12.2 16 Norte 28 Norte 0 -- -- 67
2020-03-13 14:00:00 12.4 16 Norte 24 Norte 0 -- -- 66
2020-03-13 13:00:00 12.2 14 Noroeste 24 Noroeste 0 -- -- 67
2020-03-13 12:00:00 12.1 13 Noroeste 28 Noroeste 0 -- -- 69
2020-03-13 11:00:00 11.9 15 Norte 31 Norte 0 -- -- 67
2020-03-13 10:00:00 10.2 18 Noroeste 31 Noroeste 0 -- -- 73
2020-03-13 09:00:00 9.4 20 Noroeste 31 Noroeste 0 -- -- 75
2020-03-13 08:00:00 8.5 15 Noroeste 34 Noroeste 0 -- -- 77
2020-03-13 07:00:00 8.4 21 Noroeste 33 Noroeste 0 -- -- 75
2020-03-13 06:00:00 8.3 19 Noroeste 41 Noroeste 0 -- -- 75
2020-03-13 05:00:00 8.8 21 Noroeste 45 Noroeste 0 -- -- 75
2020-03-13 04:00:00 9.4 26 Noroeste 41 Noroeste 0 -- -- 78
2020-03-13 03:00:00 9.8 23 Noroeste 40 Norte 0 -- -- 80
2020-03-13 02:00:00 10.2 20 Noroeste 37 Noroeste 0 -- -- 80
2020-03-13 01:00:00 10.9 21 Noroeste 36 Noroeste 0 -- -- 78
2020-03-13 00:00:00 11.1 19 Noroeste 34 Noroeste 0 -- -- 79
2020-03-12 23:00:00 11.2 15 Noroeste 39 Noroeste 0 -- -- 79
2020-03-12 22:00:00 11.3 18 Noroeste 36 Noroeste 0 -- -- 79
2020-03-12 21:00:00 11.5 21 Noroeste 37 Noroeste 0 -- -- 78
2020-03-12 20:00:00 12.1 19 Noroeste 41 Noroeste 0 -- -- 77
2020-03-12 19:00:00 12.8 21 Noroeste 39 Noroeste 0 -- -- 74
2020-03-12 18:00:00 14 24 Noroeste 45 Norte 0 -- -- 71
2020-03-12 17:00:00 15.1 24 Norte 44 Norte 0 -- -- 68
2020-03-12 16:00:00 17.1 18 Norte 33 Noroeste 0 -- -- 65
2020-03-12 15:00:00 18.2 14 Norte 24 Noroeste 0 -- -- 60
2020-03-12 14:00:00 19.3 14 Noroeste 24 Noroeste 0 -- -- 55
2020-03-12 13:00:00 19.8 4 Sudeste 9 Sudeste 0 -- -- 46
2020-03-12 12:00:00 18.9 4 Sur 9 Sudeste 0 -- -- 49
2020-03-12 11:00:00 16.6 3 Noroeste 7 Noroeste 0 -- -- 64
2020-03-12 10:00:00 13.7 4 Este 9 Noroeste 0 -- -- 71
2020-03-12 09:00:00 12.3 3 Oeste 8 Oeste 0 -- -- 77
2020-03-12 08:00:00 7.7 0 Calma 2 Sudoeste 0 -- -- 88
2020-03-12 07:00:00 8 0 Calma 5 Noroeste 0 -- -- 84
2020-03-12 06:00:00 9.4 4 Noroeste 6 Noroeste 0 -- -- 79
2020-03-12 05:00:00 10.4 0 Calma 9 Oeste 0 -- -- 75
2020-03-12 04:00:00 10.5 3 Noroeste 10 Noroeste 0 -- -- 75
2020-03-12 03:00:00 10.4 4 Noroeste 8 Noroeste 0 -- -- 75
2020-03-12 02:00:00 11 4 Noroeste 6 Noroeste 0 -- -- 72
2020-03-12 01:00:00 11.9 5 Noroeste 10 Noroeste 0 -- -- 69
2020-03-12 00:00:00 12.2 6 Noroeste 9 Noroeste 0 -- -- 67
2020-03-11 23:00:00 12.5 4 Noroeste 7 Oeste 0 -- -- 65
2020-03-11 22:00:00 12.5 6 Noroeste 9 Noroeste 0 -- -- 66
2020-03-11 21:00:00 13.4 4 Noroeste 8 Noroeste 0 -- -- 65
2020-03-11 20:00:00 15.3 0 Calma 5 Este 0 -- -- 59
2020-03-11 19:00:00 19.5 0 Calma 7 Sudoeste 0 -- -- 43
2020-03-11 18:00:00 22 4 Sur 9 Sur 0 -- -- 31
2020-03-11 17:00:00 22.8 3 Noroeste 10 Noroeste 0 -- -- 34
2020-03-11 16:00:00 22.5 4 Noroeste 10 Noroeste 0 -- -- 32
2020-03-11 15:00:00 21.5 6 Noroeste 12 Noroeste 0 -- -- 41
2020-03-11 14:00:00 20.4 5 Oeste 14 Oeste 0 -- -- 45
2020-03-11 13:00:00 19.1 5 Oeste 15 Oeste 0 -- -- 52
2020-03-11 12:00:00 16.9 9 Noroeste 19 Noroeste 0 -- -- 60
2020-03-11 11:00:00 15.7 11 Noroeste 18 Noroeste 0 -- -- 61
2020-03-11 10:00:00 14 8 Noroeste 15 Oeste 0 -- -- 67
2020-03-11 09:00:00 11.1 11 Noroeste 17 Noroeste 0 -- -- 74
2020-03-11 08:00:00 8.2 8 Noroeste 20 Noroeste 0 -- -- 82
2020-03-11 07:00:00 8.1 11 Noroeste 17 Noroeste 0 -- -- 82
2020-03-11 06:00:00 8.3 10 Noroeste 15 Noroeste 0 -- -- 80
2020-03-11 05:00:00 8.2 8 Noroeste 13 Noroeste 0 -- -- 80
2020-03-11 04:00:00 9.9 8 Noroeste 16 Noroeste 0 -- -- 73
2020-03-11 03:00:00 9.7 9 Noroeste 20 Noroeste 0 -- -- 72
2020-03-11 02:00:00 10.7 15 Noroeste 18 Noroeste 0 -- -- 68
2020-03-11 01:00:00 11.6 10 Noroeste 19 Oeste 0 -- -- 62
2020-03-11 00:00:00 11.2 14 Noroeste 19 Oeste 0 -- -- 56
2020-03-10 23:00:00 11.2 12 Noroeste 16 Oeste 0 -- -- 51
2020-03-10 22:00:00 12.5 8 Noroeste 15 Noroeste 0 -- -- 43
2020-03-10 21:00:00 13.7 5 Noroeste 12 Noroeste 0 -- -- 37
2020-03-10 20:00:00 14.4 7 Norte 15 Noroeste 0 -- -- 34
2020-03-10 19:00:00 17.3 4 Norte 13 Norte 0 -- -- 34
2020-03-10 18:00:00 18.5 6 Norte 13 Noroeste 0 -- -- 37
2020-03-10 17:00:00 19.2 8 Norte 19 Norte 0 -- -- 36
2020-03-10 16:00:00 19.7 13 Norte 27 Norte 0 -- -- 30
2020-03-10 15:00:00 19 12 Norte 21 Norte 0 -- -- 31
2020-03-10 14:00:00 18.4 9 Noroeste 18 Noroeste 0 -- -- 36
2020-03-10 13:00:00 17 9 Norte 17 Norte 0 -- -- 40
2020-03-10 12:00:00 16.1 8 Noroeste 17 Norte 0 -- -- 45
2020-03-10 11:00:00 13.8 9 Norte 16 Norte 0 -- -- 56
2020-03-10 10:00:00 11.7 8 Norte 13 Norte 0 -- -- 65
2020-03-10 09:00:00 8.6 6 Noroeste 9 Noroeste 0 -- -- 78
2020-03-10 08:00:00 7.3 4 Oeste 13 Norte 0 -- -- 80
2020-03-10 07:00:00 8.2 9 Noroeste 17 Noroeste 0 -- -- 75
2020-03-10 06:00:00 7.7 10 Noroeste 18 Noroeste 0 -- -- 78
2020-03-10 05:00:00 6.7 10 Noroeste 19 Noroeste 0 -- -- 81
2020-03-10 04:00:00 7 12 Noroeste 25 Noroeste 0 -- -- 80
2020-03-10 03:00:00 6.7 12 Noroeste 18 Noroeste 0 -- -- 80
2020-03-10 02:00:00 6.7 11 Noroeste 19 Noroeste 0 -- -- 80
2020-03-10 01:00:00 6.6 9 Noroeste 15 Noroeste 0 -- -- 80
2020-03-10 00:00:00 7.6 6 Oeste 17 Norte 0 -- -- 75
2020-03-09 23:00:00 7.7 9 Noroeste 22 Noroeste 0 -- -- 75
2020-03-09 22:00:00 8.1 14 Noroeste 22 Noroeste 0 -- -- 74
2020-03-09 21:00:00 7.2 14 Noroeste 28 Norte 0 -- -- 83
2020-03-09 20:00:00 7.2 19 Norte 35 Norte 0 -- -- 84
2020-03-09 19:00:00 8.1 16 Noroeste 32 Noroeste 0 -- -- 81
2020-03-09 18:00:00 9.6 14 Noroeste 33 Norte 0 -- -- 73
2020-03-09 17:00:00 10.2 18 Norte 35 Noroeste 0 -- -- 67
2020-03-09 16:00:00 9.8 22 Norte 43 Noroeste 0 -- -- 75
2020-03-09 15:00:00 10.9 20 Noroeste 44 Noroeste 0 -- -- 67
2020-03-09 14:00:00 10.7 23 Noroeste 52 Oeste 0 -- -- 65
2020-03-09 13:00:00 11.4 31 Noroeste 59 Noroeste 0 -- -- 62
2020-03-09 12:00:00 10.7 30 Noroeste 47 Noroeste 0 -- -- 66
2020-03-09 11:00:00 10.1 24 Noroeste 45 Noroeste 0 -- -- 65
2020-03-09 10:00:00 8.8 24 Noroeste 35 Noroeste 0 -- -- 71
2020-03-09 09:00:00 8.7 15 Oeste 28 Noroeste 0 -- -- 68
2020-03-09 08:00:00 7.9 12 Noroeste 28 Noroeste 0 -- -- 71
2020-03-09 07:00:00 7.5 12 Noroeste 28 Noroeste 0 -- -- 72
2020-03-09 06:00:00 8.5 6 Noroeste 20 Noroeste 0 -- -- 67
2020-03-09 05:00:00 8.3 14 Norte 33 Noroeste 0 -- -- 67
2020-03-09 04:00:00 9.2 22 Noroeste 42 Noroeste 0 -- -- 65
2020-03-09 03:00:00 9.2 13 Noroeste 28 Oeste 0 -- -- 68
2020-03-09 02:00:00 9.4 9 Noroeste 25 Noroeste 0 -- -- 74
2020-03-09 01:00:00 9.3 12 Noroeste 19 Noroeste 0 -- -- 77
2020-03-09 00:00:00 9.4 12 Noroeste 23 Noroeste 0 -- -- 79